createdAt,value
2016-10-19T00:00:36.058Z,25.97
2016-10-19T00:01:16.747Z,25.99
2016-10-19T00:01:57.436Z,25.92
2016-10-19T00:02:38.098Z,25.88
2016-10-19T00:03:18.743Z,26.06
2016-10-19T00:03:59.464Z,25.95
2016-10-19T00:04:40.127Z,25.98
2016-10-19T00:05:20.809Z,25.94
2016-10-19T00:06:01.511Z,25.88
2016-10-19T00:06:42.207Z,26.01
2016-10-19T00:07:22.927Z,25.91
2016-10-19T00:08:03.600Z,25.92
2016-10-19T00:08:44.301Z,25.92
2016-10-19T00:09:24.936Z,26.01
2016-10-19T00:10:05.589Z,25.92
2016-10-19T00:10:46.257Z,26.02
2016-10-19T00:11:26.952Z,25.95
2016-10-19T00:12:07.579Z,25.98
2016-10-19T00:12:48.247Z,25.98
2016-10-19T00:13:28.910Z,25.9
2016-10-19T00:14:09.588Z,25.88
2016-10-19T00:14:50.297Z,25.95
2016-10-19T00:15:30.982Z,26.02
2016-10-19T00:16:11.648Z,25.92
2016-10-19T00:16:52.329Z,25.97
2016-10-19T00:17:32.985Z,25.98
2016-10-19T00:18:13.632Z,25.91
2016-10-19T00:18:54.317Z,26.05
2016-10-19T00:19:34.986Z,25.95
2016-10-19T00:20:15.690Z,26.01
2016-10-19T00:20:56.400Z,25.99
2016-10-19T00:21:37.062Z,25.97
2016-10-19T00:22:17.753Z,25.95
2016-10-19T00:22:58.488Z,26.06
2016-10-19T00:23:39.190Z,26.02
2016-10-19T00:24:19.846Z,25.91
2016-10-19T00:25:01.131Z,26.02
2016-10-19T00:25:41.208Z,25.88
2016-10-19T00:26:21.891Z,26.07
2016-10-19T00:27:02.574Z,25.95
2016-10-19T00:27:43.323Z,25.91
2016-10-19T00:28:24.774Z,25.95
2016-10-19T00:29:05.492Z,26.06
2016-10-19T00:29:46.187Z,26.02
2016-10-19T00:30:26.910Z,25.88
2016-10-19T00:31:07.611Z,25.88
2016-10-19T00:31:48.331Z,25.94
2016-10-19T00:32:29.036Z,25.91
2016-10-19T00:33:09.729Z,25.9
2016-10-19T00:33:50.981Z,25.95
2016-10-19T00:34:31.647Z,25.97
2016-10-19T00:35:12.330Z,25.95
2016-10-19T00:35:53.049Z,25.88
2016-10-19T00:36:33.754Z,25.9
2016-10-19T00:37:14.414Z,25.94
2016-10-19T00:37:55.065Z,25.95
2016-10-19T00:38:35.754Z,26.02
2016-10-19T00:39:16.412Z,25.88
2016-10-19T00:39:57.065Z,26.02
2016-10-19T00:40:37.737Z,25.87
2016-10-19T00:41:18.373Z,26.06
2016-10-19T00:41:59.035Z,25.94
2016-10-19T00:42:39.709Z,26.1
2016-10-19T00:43:20.406Z,25.97
2016-10-19T00:44:01.095Z,26.01
2016-10-19T00:44:41.773Z,26.02
2016-10-19T00:45:22.426Z,26.01
2016-10-19T00:46:03.154Z,25.95
2016-10-19T00:46:43.845Z,25.91
2016-10-19T00:47:24.568Z,25.98
2016-10-19T00:48:05.258Z,25.94
2016-10-19T00:48:45.920Z,25.97
2016-10-19T00:49:26.575Z,25.92
2016-10-19T00:50:07.217Z,26.02
2016-10-19T00:50:47.899Z,26.02
2016-10-19T00:51:28.601Z,25.87
2016-10-19T00:52:09.250Z,25.94
2016-10-19T00:52:49.898Z,25.97
2016-10-19T00:53:30.555Z,25.97
2016-10-19T00:54:11.277Z,25.98
2016-10-19T00:54:51.975Z,26.06
2016-10-19T00:55:32.654Z,25.95
2016-10-19T00:56:14.648Z,25.97
2016-10-19T00:56:54.757Z,25.97
2016-10-19T00:57:35.462Z,26.06
2016-10-19T00:58:16.136Z,25.88
2016-10-19T00:58:56.815Z,26.05
2016-10-19T00:59:37.519Z,26.02
2016-10-19T01:00:18.240Z,25.95
2016-10-19T01:00:58.930Z,25.99
2016-10-19T01:01:39.635Z,25.92
2016-10-19T01:02:20.310Z,25.92
2016-10-19T01:03:01.024Z,26.06
2016-10-19T01:03:41.665Z,26.1
2016-10-19T01:04:22.316Z,26.02
2016-10-19T01:05:03.016Z,26.07
2016-10-19T01:05:43.722Z,25.95
2016-10-19T01:06:24.419Z,26.05
2016-10-19T01:07:05.107Z,26.06
2016-10-19T01:07:45.787Z,25.97
2016-10-19T01:08:26.483Z,25.94
2016-10-19T01:09:07.185Z,25.91
2016-10-19T01:09:47.901Z,25.99
2016-10-19T01:10:28.590Z,26.02
2016-10-19T01:11:09.247Z,25.92
2016-10-19T01:11:49.956Z,26.02
2016-10-19T01:12:30.656Z,25.95
2016-10-19T01:13:11.310Z,25.95
2016-10-19T01:13:51.963Z,25.97
2016-10-19T01:14:32.656Z,25.95
2016-10-19T01:15:13.359Z,25.98
2016-10-19T01:15:54.036Z,25.9
2016-10-19T01:16:34.752Z,26.1
2016-10-19T01:17:15.423Z,25.9
2016-10-19T01:17:56.092Z,25.98
2016-10-19T01:18:36.760Z,26.02
2016-10-19T01:19:17.448Z,25.94
2016-10-19T01:19:58.145Z,26.02
2016-10-19T01:20:38.857Z,26.02
2016-10-19T01:21:19.529Z,26.01
2016-10-19T01:22:00.195Z,26.02
2016-10-19T01:22:40.905Z,26.02
2016-10-19T01:23:21.565Z,25.95
2016-10-19T01:24:02.252Z,25.97
2016-10-19T01:24:42.915Z,26.1
2016-10-19T01:25:23.620Z,25.95
2016-10-19T01:26:04.286Z,26.06
2016-10-19T01:26:44.969Z,25.97
2016-10-19T01:27:25.681Z,26.1
2016-10-19T01:28:06.336Z,26.06
2016-10-19T01:28:47.030Z,25.92
2016-10-19T01:29:27.727Z,25.99
2016-10-19T01:30:08.341Z,26.1
2016-10-19T01:30:49.008Z,25.94
2016-10-19T01:31:29.700Z,26.05
2016-10-19T01:32:10.395Z,25.97
2016-10-19T01:32:51.113Z,25.99
2016-10-19T01:33:31.805Z,26.01
2016-10-19T01:34:12.527Z,25.95
2016-10-19T01:34:53.188Z,25.9
2016-10-19T01:35:33.898Z,25.95
2016-10-19T01:36:14.557Z,25.95
2016-10-19T01:36:55.255Z,25.94
2016-10-19T01:37:35.964Z,26.05
2016-10-19T01:38:16.693Z,25.91
2016-10-19T01:38:57.379Z,25.95
2016-10-19T01:39:38.086Z,25.9
2016-10-19T01:40:18.737Z,25.97
2016-10-19T01:40:59.433Z,26.06
2016-10-19T01:41:40.104Z,26.02
2016-10-19T01:42:20.799Z,26.05
2016-10-19T01:43:01.523Z,26.02
2016-10-19T01:43:42.211Z,25.87
2016-10-19T01:44:22.932Z,26.06
2016-10-19T01:45:03.647Z,26.05
2016-10-19T01:45:44.349Z,25.92
2016-10-19T01:46:25.040Z,26.02
2016-10-19T01:47:05.703Z,25.97
2016-10-19T01:47:46.370Z,26.02
2016-10-19T01:48:27.090Z,25.92
2016-10-19T01:49:07.784Z,25.9
2016-10-19T01:49:48.451Z,25.99
2016-10-19T01:50:29.179Z,25.87
2016-10-19T01:51:09.844Z,25.97
2016-10-19T01:51:50.488Z,26.02
2016-10-19T01:52:31.145Z,25.95
2016-10-19T01:53:11.829Z,26.06
2016-10-19T01:53:52.551Z,25.92
2016-10-19T01:54:33.224Z,26.05
2016-10-19T01:55:13.913Z,25.99
2016-10-19T01:55:54.583Z,25.98
2016-10-19T01:56:35.300Z,26.01
2016-10-19T01:57:15.971Z,25.94
2016-10-19T01:57:56.673Z,26.05
2016-10-19T01:58:37.362Z,25.94
2016-10-19T01:59:18.012Z,25.99
2016-10-19T01:59:58.682Z,26.09
2016-10-19T02:00:40.181Z,25.97
2016-10-19T02:01:20.071Z,26.06
2016-10-19T02:02:00.809Z,25.98
2016-10-19T02:02:41.470Z,25.91
2016-10-19T02:03:22.175Z,25.87
2016-10-19T02:04:02.916Z,25.94
2016-10-19T02:04:43.550Z,25.92
2016-10-19T02:05:24.221Z,25.99
2016-10-19T02:06:04.938Z,25.95
2016-10-19T02:06:45.597Z,25.95
2016-10-19T02:07:26.293Z,26.02
2016-10-19T02:08:06.978Z,26.02
2016-10-19T02:08:47.651Z,26.01
2016-10-19T02:09:28.352Z,25.94
2016-10-19T02:10:09.037Z,25.99
2016-10-19T02:10:49.703Z,25.99
2016-10-19T02:11:30.366Z,25.99
2016-10-19T02:12:11.079Z,25.99
2016-10-19T02:12:51.739Z,25.98
2016-10-19T02:13:32.455Z,25.95
2016-10-19T02:14:13.096Z,26.01
2016-10-19T02:14:53.748Z,26.02
2016-10-19T02:15:34.473Z,26.01
2016-10-19T02:16:15.103Z,25.95
2016-10-19T02:16:55.761Z,26.02
2016-10-19T02:17:36.479Z,25.99
2016-10-19T02:18:17.118Z,26.01
2016-10-19T02:18:57.769Z,26.06
2016-10-19T02:19:38.466Z,25.9
2016-10-19T02:20:19.151Z,25.98
2016-10-19T02:20:59.805Z,26.02
2016-10-19T02:21:40.468Z,26.05
2016-10-19T02:22:21.136Z,25.94
2016-10-19T02:23:01.825Z,26.05
2016-10-19T02:23:42.577Z,25.95
2016-10-19T02:24:23.226Z,25.97
2016-10-19T02:25:03.880Z,26.01
2016-10-19T02:25:44.631Z,25.92
2016-10-19T02:26:25.292Z,25.91
2016-10-19T02:27:05.968Z,25.92
2016-10-19T02:27:46.686Z,25.97
2016-10-19T02:28:27.422Z,25.99
2016-10-19T02:29:08.101Z,25.97
2016-10-19T02:29:48.768Z,26.02
2016-10-19T02:30:29.472Z,25.88
2016-10-19T02:31:10.158Z,25.9
2016-10-19T02:31:50.833Z,25.88
2016-10-19T02:32:31.525Z,26.05
2016-10-19T02:33:12.211Z,25.88
2016-10-19T02:33:52.922Z,25.95
2016-10-19T02:34:33.599Z,26.01
2016-10-19T02:35:14.339Z,25.92
2016-10-19T02:35:55.011Z,25.95
2016-10-19T02:36:35.661Z,25.99
2016-10-19T02:37:16.369Z,25.99
2016-10-19T02:37:57.093Z,26.02
2016-10-19T02:38:37.775Z,25.97
2016-10-19T02:39:18.470Z,25.97
2016-10-19T02:39:59.157Z,26.06
2016-10-19T02:40:39.847Z,25.9
2016-10-19T02:41:20.559Z,25.9
2016-10-19T02:42:01.221Z,25.92
2016-10-19T02:42:41.839Z,26.02
2016-10-19T02:43:22.527Z,25.98
2016-10-19T02:44:03.247Z,25.94
2016-10-19T02:44:43.875Z,25.97
2016-10-19T02:45:24.587Z,25.94
2016-10-19T02:46:05.299Z,25.94
2016-10-19T02:46:45.977Z,26.06
2016-10-19T02:47:26.599Z,26.01
2016-10-19T02:48:07.317Z,26.06
2016-10-19T02:48:47.968Z,25.91
2016-10-19T02:49:28.649Z,26.06
2016-10-19T02:50:09.339Z,26.02
2016-10-19T02:50:50.831Z,25.98
2016-10-19T02:51:31.496Z,25.9
2016-10-19T02:52:12.204Z,26.01
2016-10-19T02:52:52.879Z,25.91
2016-10-19T02:53:33.541Z,26.01
2016-10-19T02:54:14.254Z,26.05
2016-10-19T02:54:54.929Z,25.94
2016-10-19T02:55:35.599Z,25.92
2016-10-19T02:56:16.256Z,25.97
2016-10-19T02:56:56.909Z,26.05
2016-10-19T02:57:37.609Z,25.97
2016-10-19T02:58:18.323Z,25.9
2016-10-19T02:58:59.008Z,26.01
2016-10-19T02:59:40.229Z,26.1
2016-10-19T03:00:20.424Z,25.99
2016-10-19T03:01:01.117Z,25.95
2016-10-19T03:01:41.798Z,25.88
2016-10-19T03:02:22.512Z,25.97
2016-10-19T03:03:03.167Z,26.06
2016-10-19T03:03:43.827Z,26.06
2016-10-19T03:04:24.504Z,26.01
2016-10-19T03:05:05.203Z,25.94
2016-10-19T03:05:45.908Z,25.9
2016-10-19T03:06:26.563Z,25.87
2016-10-19T03:07:07.262Z,25.99
2016-10-19T03:07:47.927Z,26.01
2016-10-19T03:08:28.633Z,25.99
2016-10-19T03:09:09.370Z,26.06
2016-10-19T03:09:50.086Z,26.02
2016-10-19T03:10:30.771Z,25.97
2016-10-19T03:11:11.426Z,26.02
2016-10-19T03:11:52.105Z,25.97
2016-10-19T03:12:32.802Z,26.01
2016-10-19T03:13:13.476Z,25.9
2016-10-19T03:13:54.205Z,25.94
2016-10-19T03:14:34.877Z,25.97
2016-10-19T03:15:15.577Z,26.01
2016-10-19T03:15:56.206Z,25.98
2016-10-19T03:16:36.915Z,25.94
2016-10-19T03:17:17.637Z,25.99
2016-10-19T03:17:58.332Z,25.9
2016-10-19T03:18:39.010Z,26.06
2016-10-19T03:19:19.713Z,25.92
2016-10-19T03:20:00.400Z,26.05
2016-10-19T03:20:41.121Z,25.92
2016-10-19T03:21:21.831Z,26.06
2016-10-19T03:22:03.248Z,25.9
2016-10-19T03:22:43.196Z,25.9
2016-10-19T03:23:23.838Z,25.99
2016-10-19T03:24:04.581Z,25.95
2016-10-19T03:24:45.291Z,26.01
2016-10-19T03:25:25.969Z,25.98
2016-10-19T03:26:06.605Z,26.02
2016-10-19T03:26:47.310Z,25.91
2016-10-19T03:27:27.991Z,26.05
2016-10-19T03:28:08.659Z,26.06
2016-10-19T03:28:49.329Z,25.94
2016-10-19T03:29:30.022Z,25.92
2016-10-19T03:30:10.639Z,25.91
2016-10-19T03:30:51.284Z,26.02
2016-10-19T03:31:31.948Z,26.06
2016-10-19T03:32:12.662Z,26.05
2016-10-19T03:32:53.294Z,26.1
2016-10-19T03:33:33.994Z,26.02
2016-10-19T03:34:14.654Z,25.98
2016-10-19T03:34:55.357Z,26.02
2016-10-19T03:35:36.022Z,25.99
2016-10-19T03:36:16.724Z,25.97
2016-10-19T03:36:57.441Z,26.06
2016-10-19T03:37:38.145Z,25.99
2016-10-19T03:38:18.847Z,25.94
2016-10-19T03:38:59.527Z,25.9
2016-10-19T03:39:40.238Z,25.99
2016-10-19T03:40:20.901Z,25.98
2016-10-19T03:41:01.581Z,25.99
2016-10-19T03:41:42.255Z,26.02
2016-10-19T03:42:22.947Z,25.92
2016-10-19T03:43:03.644Z,25.95
2016-10-19T03:43:44.300Z,25.92
2016-10-19T03:44:25.024Z,25.91
2016-10-19T03:45:05.714Z,25.95
2016-10-19T03:45:46.419Z,25.99
2016-10-19T03:46:27.116Z,25.92
2016-10-19T03:47:07.860Z,25.92
2016-10-19T03:47:48.508Z,26.1
2016-10-19T03:48:29.153Z,25.98
2016-10-19T03:49:09.836Z,25.94
2016-10-19T03:49:50.554Z,25.91
2016-10-19T03:50:31.232Z,25.9
2016-10-19T03:51:11.907Z,25.9
2016-10-19T03:51:52.565Z,25.97
2016-10-19T03:52:33.262Z,25.91
2016-10-19T03:53:13.928Z,26.02
2016-10-19T03:53:54.584Z,26.05
2016-10-19T03:54:35.278Z,25.94
2016-10-19T03:55:15.983Z,26.02
2016-10-19T03:55:56.663Z,25.91
2016-10-19T03:56:37.347Z,25.98
2016-10-19T03:57:18.095Z,26.05
2016-10-19T03:57:58.777Z,26.01
2016-10-19T03:58:39.402Z,25.94
2016-10-19T03:59:20.030Z,26.06
2016-10-19T04:00:00.710Z,25.97
2016-10-19T04:00:41.428Z,25.97
2016-10-19T04:01:22.143Z,25.9
2016-10-19T04:02:02.821Z,25.95
2016-10-19T04:02:43.530Z,25.94
2016-10-19T04:03:24.238Z,26.02
2016-10-19T04:04:04.903Z,26.05
2016-10-19T04:04:45.602Z,25.97
2016-10-19T04:05:26.285Z,25.98
2016-10-19T04:06:06.927Z,26.01
2016-10-19T04:06:47.616Z,25.87
2016-10-19T04:07:28.317Z,25.88
2016-10-19T04:08:09.031Z,25.92
2016-10-19T04:08:49.688Z,25.98
2016-10-19T04:09:30.367Z,25.98
2016-10-19T04:10:11.047Z,25.95
2016-10-19T04:10:51.706Z,26.05
2016-10-19T04:11:32.389Z,25.91
2016-10-19T04:12:13.053Z,25.95
2016-10-19T04:12:53.713Z,25.97
2016-10-19T04:13:34.371Z,25.9
2016-10-19T04:14:15.064Z,26.02
2016-10-19T04:14:55.761Z,25.91
2016-10-19T04:15:36.455Z,26.01
2016-10-19T04:16:17.187Z,25.9
2016-10-19T04:16:57.905Z,25.87
2016-10-19T04:17:38.579Z,25.98
2016-10-19T04:18:19.259Z,25.99
2016-10-19T04:18:59.961Z,26.01
2016-10-19T04:19:40.603Z,25.91
2016-10-19T04:20:21.259Z,25.88
2016-10-19T04:21:01.973Z,25.98
2016-10-19T04:21:42.610Z,25.97
2016-10-19T04:22:23.320Z,26.01
2016-10-19T04:23:03.999Z,25.94
2016-10-19T04:23:44.673Z,25.91
2016-10-19T04:24:25.383Z,25.91
2016-10-19T04:25:06.023Z,26.01
2016-10-19T04:25:46.702Z,25.97
2016-10-19T04:26:27.406Z,25.99
2016-10-19T04:27:08.117Z,26.05
2016-10-19T04:27:48.813Z,25.91
2016-10-19T04:28:29.506Z,26.05
2016-10-19T04:29:10.219Z,26.02
2016-10-19T04:29:50.925Z,26.05
2016-10-19T04:30:31.631Z,25.91
2016-10-19T04:31:12.308Z,26.02
2016-10-19T04:31:53.001Z,25.95
2016-10-19T04:32:33.694Z,25.95
2016-10-19T04:33:14.380Z,26.05
2016-10-19T04:33:55.083Z,26.06
2016-10-19T04:34:35.721Z,25.97
2016-10-19T04:35:16.382Z,26.05
2016-10-19T04:35:57.107Z,26.01
2016-10-19T04:36:37.786Z,25.91
2016-10-19T04:37:18.466Z,26.02
2016-10-19T04:37:59.144Z,25.92
2016-10-19T04:38:39.822Z,26.01
2016-10-19T04:39:20.484Z,26.01
2016-10-19T04:40:01.170Z,25.97
2016-10-19T04:40:41.819Z,25.9
2016-10-19T04:41:22.509Z,25.92
2016-10-19T04:42:03.214Z,25.91
2016-10-19T04:42:43.898Z,26.01
2016-10-19T04:43:24.596Z,25.97
2016-10-19T04:44:05.262Z,25.95
2016-10-19T04:44:45.993Z,26.06
2016-10-19T04:45:26.656Z,25.92
2016-10-19T04:46:07.361Z,26.06
2016-10-19T04:46:48.043Z,25.99
2016-10-19T04:47:28.748Z,25.99
2016-10-19T04:48:09.422Z,25.97
2016-10-19T04:48:50.099Z,26.09
2016-10-19T04:49:30.802Z,25.99
2016-10-19T04:50:11.515Z,25.97
2016-10-19T04:50:52.231Z,26.06
2016-10-19T04:51:32.861Z,25.9
2016-10-19T04:52:13.529Z,25.9
2016-10-19T04:52:54.183Z,25.92
2016-10-19T04:53:34.845Z,25.95
2016-10-19T04:54:15.545Z,25.97
2016-10-19T04:54:56.213Z,25.91
2016-10-19T04:55:36.882Z,26.01
2016-10-19T04:56:17.621Z,25.92
2016-10-19T04:56:58.297Z,25.92
2016-10-19T04:57:38.970Z,26.05
2016-10-19T04:58:19.669Z,25.88
2016-10-19T04:59:00.376Z,26.02
2016-10-19T04:59:41.027Z,26.02
2016-10-19T05:00:21.718Z,26.02
2016-10-19T05:01:02.396Z,25.98
2016-10-19T05:01:43.064Z,25.9
2016-10-19T05:02:23.781Z,25.9
2016-10-19T05:03:04.524Z,26.01
2016-10-19T05:03:45.195Z,26.09
2016-10-19T05:04:25.911Z,25.92
2016-10-19T05:05:06.580Z,26.05
2016-10-19T05:05:47.289Z,26.02
2016-10-19T05:06:27.967Z,26.02
2016-10-19T05:07:08.655Z,26.01
2016-10-19T05:07:49.327Z,26.05
2016-10-19T05:08:30.012Z,26.01
2016-10-19T05:09:10.673Z,26.01
2016-10-19T05:09:51.350Z,26.02
2016-10-19T05:10:32.017Z,26.01
2016-10-19T05:11:12.750Z,26.05
2016-10-19T05:11:53.386Z,26.01
2016-10-19T05:12:34.088Z,26.01
2016-10-19T05:13:14.811Z,25.97
2016-10-19T05:13:55.479Z,25.97
2016-10-19T05:14:36.134Z,26.05
2016-10-19T05:15:16.836Z,26.02
2016-10-19T05:15:57.519Z,26.02
2016-10-19T05:16:38.242Z,25.98
2016-10-19T05:17:18.882Z,26.01
2016-10-19T05:17:59.604Z,25.97
2016-10-19T05:18:40.283Z,25.99
2016-10-19T05:19:21.023Z,25.91
2016-10-19T05:20:01.686Z,26.01
2016-10-19T05:20:42.359Z,25.99
2016-10-19T05:21:23.025Z,26.05
2016-10-19T05:22:03.683Z,25.99
2016-10-19T05:22:44.344Z,25.97
2016-10-19T05:23:25.049Z,25.9
2016-10-19T05:24:05.736Z,26.06
2016-10-19T05:24:46.433Z,25.98
2016-10-19T05:25:27.091Z,25.99
2016-10-19T05:26:07.765Z,26.06
2016-10-19T05:26:48.452Z,26.01
2016-10-19T05:27:29.130Z,25.95
2016-10-19T05:28:09.832Z,26.06
2016-10-19T05:28:50.482Z,25.98
2016-10-19T05:29:31.247Z,26.02
2016-10-19T05:30:11.894Z,26.05
2016-10-19T05:30:52.586Z,26.02
2016-10-19T05:31:33.257Z,25.99
2016-10-19T05:32:13.935Z,26.05
2016-10-19T05:32:54.629Z,25.99
2016-10-19T05:33:35.301Z,26.09
2016-10-19T05:34:16.004Z,25.99
2016-10-19T05:34:56.699Z,25.95
2016-10-19T05:35:37.355Z,26.02
2016-10-19T05:36:17.984Z,26.05
2016-10-19T05:36:58.668Z,25.95
2016-10-19T05:37:39.352Z,26.05
2016-10-19T05:38:19.986Z,25.94
2016-10-19T05:39:00.682Z,25.9
2016-10-19T05:39:41.373Z,26.01
2016-10-19T05:40:22.092Z,25.98
2016-10-19T05:41:02.807Z,26.06
2016-10-19T05:41:43.538Z,26.02
2016-10-19T05:42:24.185Z,26.01
2016-10-19T05:43:04.884Z,26.01
2016-10-19T05:43:45.601Z,25.99
2016-10-19T05:44:26.269Z,26.01
2016-10-19T05:45:06.939Z,25.99
2016-10-19T05:45:47.628Z,26.02
2016-10-19T05:46:28.311Z,26.02
2016-10-19T05:47:08.962Z,26.09
2016-10-19T05:47:49.672Z,26.02
2016-10-19T05:48:30.330Z,26.01
2016-10-19T05:49:11.002Z,25.99
2016-10-19T05:49:51.679Z,26.05
2016-10-19T05:50:32.381Z,25.87
2016-10-19T05:51:13.057Z,26.06
2016-10-19T05:51:53.713Z,25.95
2016-10-19T05:52:34.418Z,25.98
2016-10-19T05:53:15.101Z,26.01
2016-10-19T05:53:55.815Z,26.02
2016-10-19T05:54:36.490Z,26.05
2016-10-19T05:55:17.185Z,26.05
2016-10-19T05:55:57.892Z,26.07
2016-10-19T05:56:38.559Z,26.01
2016-10-19T05:57:19.234Z,26.05
2016-10-19T05:57:59.947Z,25.99
2016-10-19T05:58:40.623Z,26.01
2016-10-19T05:59:21.340Z,26.01
2016-10-19T06:00:02.009Z,26.05
2016-10-19T06:00:42.692Z,26.01
2016-10-19T06:01:23.477Z,25.92
2016-10-19T06:02:04.173Z,26.02
2016-10-19T06:02:44.878Z,26.05
2016-10-19T06:03:25.607Z,25.99
2016-10-19T06:04:06.299Z,26.01
2016-10-19T06:04:46.988Z,26.01
2016-10-19T06:05:27.748Z,26.05
2016-10-19T06:06:08.460Z,25.91
2016-10-19T06:06:49.161Z,25.95
2016-10-19T06:07:29.875Z,26.02
2016-10-19T06:08:10.597Z,25.97
2016-10-19T06:08:51.229Z,25.98
2016-10-19T06:09:31.884Z,25.94
2016-10-19T06:10:12.555Z,26.01
2016-10-19T06:10:53.263Z,26.01
2016-10-19T06:11:33.946Z,26.06
2016-10-19T06:12:14.634Z,26.07
2016-10-19T06:12:55.348Z,26.05
2016-10-19T06:13:36.024Z,25.97
2016-10-19T06:14:16.725Z,25.98
2016-10-19T06:14:57.478Z,26.07
2016-10-19T06:15:38.111Z,26.07
2016-10-19T06:16:18.874Z,26.05
2016-10-19T06:16:59.576Z,26.05
2016-10-19T06:17:40.291Z,26.02
2016-10-19T06:18:21.066Z,25.98
2016-10-19T06:19:01.771Z,26.07
2016-10-19T06:19:42.479Z,26.06
2016-10-19T06:21:40.786Z,26.06
2016-10-19T06:22:21.449Z,25.9
2016-10-19T06:23:02.157Z,25.9
2016-10-19T06:23:42.767Z,25.79
2016-10-19T06:24:23.475Z,25.67
2016-10-19T06:25:04.114Z,25.61
2016-10-19T06:25:44.898Z,25.58
2016-10-19T06:26:25.575Z,25.51
2016-10-19T06:27:06.316Z,25.5
2016-10-19T06:27:46.991Z,25.52
2016-10-19T06:28:27.669Z,25.51
2016-10-19T06:29:08.363Z,25.54
2016-10-19T06:29:49.015Z,25.38
2016-10-19T06:30:29.689Z,25.42
2016-10-19T06:31:10.379Z,25.35
2016-10-19T06:31:51.024Z,25.23
2016-10-19T06:32:31.757Z,25.21
2016-10-19T06:33:12.441Z,25.23
2016-10-19T06:33:53.143Z,24.96
2016-10-19T06:34:33.819Z,24.58
2016-10-19T06:35:14.517Z,24.53
2016-10-19T06:35:55.193Z,24.39
2016-10-19T06:36:35.925Z,24.39
2016-10-19T06:37:16.580Z,24.3
2016-10-19T06:37:57.268Z,24.4
2016-10-19T06:38:37.950Z,24.4
2016-10-19T06:39:18.685Z,24.43
2016-10-19T06:39:59.398Z,24.35
2016-10-19T06:40:40.140Z,24.32
2016-10-19T06:41:20.838Z,24.37
2016-10-19T06:42:01.514Z,24.34
2016-10-19T06:42:42.180Z,24.21
2016-10-19T06:43:22.876Z,24.1
2016-10-19T06:44:03.563Z,24.02
2016-10-19T06:44:44.258Z,24.08
2016-10-19T06:45:25.028Z,24.06
2016-10-19T06:46:05.682Z,24.15
2016-10-19T06:46:46.391Z,24.06
2016-10-19T06:47:27.109Z,24.03
2016-10-19T06:48:07.786Z,24.08
2016-10-19T06:48:48.481Z,24.12
2016-10-19T06:49:29.204Z,24.1
2016-10-19T06:50:09.899Z,24.02
2016-10-19T06:50:50.669Z,24.08
2016-10-19T06:51:31.364Z,23.93
2016-10-19T06:52:12.037Z,23.93
2016-10-19T06:52:52.761Z,23.78
2016-10-19T06:53:33.510Z,23.8
2016-10-19T06:54:14.176Z,23.97
2016-10-19T06:54:54.868Z,23.94
2016-10-19T06:55:35.554Z,23.9
2016-10-19T06:56:16.275Z,23.9
2016-10-19T06:56:56.967Z,23.87
2016-10-19T06:57:37.713Z,23.72
2016-10-19T06:58:18.416Z,23.73
2016-10-19T06:58:59.076Z,23.78
2016-10-19T06:59:39.773Z,23.83
2016-10-19T07:00:20.493Z,23.83
2016-10-19T07:01:01.147Z,23.65
2016-10-19T07:01:41.844Z,23.54
2016-10-19T07:02:22.519Z,23.31
2016-10-19T07:03:03.251Z,23.35
2016-10-19T07:03:43.910Z,23.28
2016-10-19T07:04:24.674Z,23.36
2016-10-19T07:05:05.377Z,23.19
2016-10-19T07:05:46.065Z,23.28
2016-10-19T07:06:26.744Z,23.27
2016-10-19T07:07:07.380Z,23.22
2016-10-19T07:07:48.042Z,23.2
2016-10-19T07:08:28.695Z,23.2
2016-10-19T07:09:09.375Z,23.17
2016-10-19T07:09:50.055Z,23.1
2016-10-19T07:10:30.771Z,23.16
2016-10-19T07:11:11.457Z,23.13
2016-10-19T07:11:52.163Z,23.07
2016-10-19T07:12:32.855Z,22.94
2016-10-19T07:13:13.558Z,22.91
2016-10-19T07:13:54.245Z,23.09
2016-10-19T07:14:34.997Z,23.09
2016-10-19T07:15:15.645Z,23.17
2016-10-19T07:15:56.324Z,23.16
2016-10-19T07:16:37.004Z,23.17
2016-10-19T07:17:17.709Z,23.13
2016-10-19T07:17:58.462Z,23.09
2016-10-19T07:18:39.208Z,23.16
2016-10-19T07:19:19.900Z,23.22
2016-10-19T07:20:00.580Z,23.17
2016-10-19T07:20:42.001Z,23.19
2016-10-19T07:21:21.991Z,23.19
2016-10-19T07:22:02.658Z,23.25
2016-10-19T07:22:43.405Z,23.23
2016-10-19T07:23:24.070Z,23.31
2016-10-19T07:24:04.714Z,23.19
2016-10-19T07:24:45.424Z,23.17
2016-10-19T07:25:26.142Z,23.23
2016-10-19T07:26:06.868Z,23.25
2016-10-19T07:26:47.583Z,23.2
2016-10-19T07:27:28.279Z,23.17
2016-10-19T07:28:09.056Z,23.22
2016-10-19T07:28:49.767Z,23.31
2016-10-19T07:29:30.465Z,23.38
2016-10-19T07:30:11.661Z,23.42
2016-10-19T07:30:52.839Z,23.51
2016-10-19T07:31:33.552Z,23.6
2016-10-19T07:32:14.294Z,23.63
2016-10-19T07:32:55.020Z,23.65
2016-10-19T07:33:35.688Z,23.66
2016-10-19T07:34:16.359Z,23.8
2016-10-19T07:34:57.017Z,23.91
2016-10-19T07:35:37.701Z,23.97
2016-10-19T07:36:18.360Z,23.88
2016-10-19T07:36:59.011Z,23.95
2016-10-19T07:37:39.704Z,24.08
2016-10-19T07:38:20.376Z,24.09
2016-10-19T07:39:01.089Z,24.15
2016-10-19T07:39:42.512Z,24.25
2016-10-19T07:40:23.240Z,24.2
2016-10-19T07:41:03.991Z,24.3
2016-10-19T07:41:44.702Z,24.37
2016-10-19T07:42:25.410Z,24.43
2016-10-19T07:43:06.086Z,24.35
2016-10-19T07:43:47.064Z,24.35
2016-10-19T07:44:27.741Z,24.37
2016-10-19T07:45:08.390Z,24.45
2016-10-19T07:45:49.039Z,24.53
2016-10-19T07:46:29.749Z,24.58
2016-10-19T07:47:10.430Z,24.57
2016-10-19T07:47:51.161Z,24.55
2016-10-19T07:48:31.859Z,24.58
2016-10-19T07:49:12.563Z,24.69
2016-10-19T07:49:53.231Z,24.69
2016-10-19T07:50:33.967Z,24.64
2016-10-19T07:51:14.680Z,24.73
2016-10-19T07:51:55.436Z,24.8
2016-10-19T07:52:36.093Z,24.81
2016-10-19T07:53:16.808Z,24.87
2016-10-19T07:53:57.522Z,24.88
2016-10-19T07:54:38.287Z,24.85
2016-10-19T07:55:19.019Z,24.88
2016-10-19T07:55:59.831Z,24.91
2016-10-19T07:56:40.568Z,24.9
2016-10-19T07:57:21.332Z,25
2016-10-19T07:58:02.014Z,25
2016-10-19T07:58:42.730Z,25
2016-10-19T07:59:23.432Z,25.06
2016-10-19T08:00:04.152Z,25.03
2016-10-19T08:00:44.847Z,25.09
2016-10-19T08:01:25.535Z,25.05
2016-10-19T08:02:06.194Z,25.09
2016-10-19T08:02:46.892Z,25.08
2016-10-19T08:03:27.505Z,25.08
2016-10-19T08:04:09.614Z,25.13
2016-10-19T08:04:50.366Z,25.18
2016-10-19T08:05:31.022Z,25.17
2016-10-19T08:06:11.777Z,25.13
2016-10-19T08:06:52.553Z,25.05
2016-10-19T08:07:34.213Z,25.03
2016-10-19T08:08:14.971Z,25.09
2016-10-19T08:08:55.723Z,25.09
2016-10-19T08:09:36.439Z,25.03
2016-10-19T08:10:17.111Z,25.08
2016-10-19T08:10:58.211Z,25.03
2016-10-19T08:11:38.940Z,25.06
2016-10-19T08:12:19.647Z,25.06
2016-10-19T08:13:00.316Z,25.08
2016-10-19T08:13:41.110Z,25.05
2016-10-19T08:14:24.018Z,25
2016-10-19T08:15:04.460Z,25.08
2016-10-19T08:15:45.210Z,25.08
2016-10-19T08:16:25.904Z,25.09
2016-10-19T08:17:06.655Z,25.1
2016-10-19T08:17:47.819Z,25.18
2016-10-19T08:18:28.424Z,25.15
2016-10-19T08:19:10.079Z,25.17
2016-10-19T08:19:50.823Z,25.14
2016-10-19T08:20:31.523Z,25.14
2016-10-19T08:21:12.241Z,25.2
2016-10-19T08:21:53.000Z,25.15
2016-10-19T08:22:33.689Z,25.2
2016-10-19T08:23:16.456Z,25.15
2016-10-19T08:23:57.014Z,25.2
2016-10-19T08:24:37.787Z,25.21
2016-10-19T08:25:18.518Z,25.21
2016-10-19T08:25:59.214Z,25.21
2016-10-19T08:26:39.947Z,25.2
2016-10-19T08:27:20.727Z,25.23
2016-10-19T08:28:01.499Z,25.23
2016-10-19T08:28:42.174Z,25.23
2016-10-19T08:29:23.655Z,25.23
2016-10-19T08:30:04.373Z,25.27
2016-10-19T08:30:45.024Z,25.2
2016-10-19T08:31:25.725Z,25.21
2016-10-19T08:32:06.414Z,25.24
2016-10-19T08:32:47.148Z,25.3
2016-10-19T08:33:27.856Z,25.27
2016-10-19T08:34:08.576Z,25.23
2016-10-19T08:34:49.229Z,25.17
2016-10-19T08:35:30.043Z,25.23
2016-10-19T08:36:10.781Z,25.25
2016-10-19T08:36:51.472Z,25.27
2016-10-19T08:37:32.182Z,25.24
2016-10-19T08:38:12.871Z,25.24
2016-10-19T08:38:53.529Z,25.3
2016-10-19T08:39:34.261Z,25.32
2016-10-19T08:40:14.946Z,25.33
2016-10-19T08:40:55.724Z,25.27
2016-10-19T08:41:36.413Z,25.24
2016-10-19T08:42:17.111Z,25.25
2016-10-19T08:42:57.784Z,25.35
2016-10-19T08:43:38.487Z,25.24
2016-10-19T08:44:19.179Z,25.33
2016-10-19T08:44:59.855Z,25.36
2016-10-19T08:45:40.485Z,25.4
2016-10-19T08:48:42.972Z,25.35
2016-10-19T08:49:23.773Z,25.38
2016-10-19T08:50:04.719Z,25.39